Time;durP1;ratioP1;P1;durP2;ratioP2;P2;SDS_P1;SDS_P2;PMS_P1;PMS_P2;Temp;Humidity;BMP_temperature;BMP_pressure;BME280_temperature;BME280_humidity;BME280_pressure;Samples;Min_cycle;Max_cycle;Signal;HPM_P1;HPM_P2
2023/01/14 00:04:16;;;;;;;2.00;1.70;;;15.20;56.00;;;;;;222204;1270;22528;-49
2023/01/14 00:09:20;;;;;;;1.80;1.70;;;15.20;56.00;;;;;;221865;1271;22649;-48
2023/01/14 00:14:30;;;;;;;2.30;1.40;;;15.20;55.90;;;;;;221697;1267;22531;-50
2023/01/14 00:19:33;;;;;;;1.40;1.30;;;15.20;55.80;;;;;;221788;1271;24170;-48
2023/01/14 00:24:38;;;;;;;1.80;1.60;;;15.20;55.80;;;;;;222177;1256;23210;-46
2023/01/14 00:29:42;;;;;;;1.50;1.40;;;15.20;55.80;;;;;;222113;1271;22557;-50
2023/01/14 00:34:46;;;;;;;1.90;1.80;;;15.30;55.60;;;;;;222230;1271;23123;-53
2023/01/14 00:39:50;;;;;;;1.90;1.40;;;15.30;55.90;;;;;;221933;1270;23965;-56
2023/01/14 00:44:54;;;;;;;1.50;1.40;;;15.20;55.80;;;;;;221838;1271;24218;-48
2023/01/14 00:49:58;;;;;;;1.60;1.50;;;15.20;55.70;;;;;;221763;1267;22652;-45
2023/01/14 00:55:03;;;;;;;1.90;1.60;;;15.20;55.80;;;;;;222099;1264;22667;-50
2023/01/14 01:00:08;;;;;;;1.90;1.70;;;15.20;56.30;;;;;;221798;1267;22547;-49
2023/01/14 01:05:12;;;;;;;2.00;1.80;;;15.10;56.50;;;;;;221707;1267;22654;-49
2023/01/14 01:10:17;;;;;;;1.50;1.30;;;15.20;56.00;;;;;;222132;1266;22524;-50
2023/01/14 01:15:22;;;;;;;1.40;1.30;;;15.10;56.10;;;;;;222483;1263;26568;-47
2023/01/14 01:20:26;;;;;;;2.00;1.70;;;15.10;56.10;;;;;;222124;1264;22535;-50
2023/01/14 01:25:30;;;;;;;1.50;1.40;;;15.20;56.10;;;;;;222290;1266;22547;-48
2023/01/14 01:30:34;;;;;;;1.80;1.40;;;15.10;56.50;;;;;;222196;1266;24751;-49
2023/01/14 01:35:38;;;;;;;1.40;1.20;;;15.20;56.10;;;;;;222242;1266;22829;-50
2023/01/14 01:40:42;;;;;;;1.50;1.40;;;15.20;56.00;;;;;;222217;1263;22532;-45
2023/01/14 01:45:48;;;;;;;1.80;1.40;;;15.10;56.10;;;;;;222334;1263;22667;-48
2023/01/14 01:51:10;;;;;;;1.50;1.30;;;15.10;56.00;;;;;;222038;1270;22686;-49
2023/01/14 01:56:21;;;;;;;1.40;1.30;;;15.10;56.10;;;;;;222008;1270;26471;-48
2023/01/14 02:01:26;;;;;;;1.80;1.50;;;15.10;56.10;;;;;;222045;1256;22884;-51
2023/01/14 02:06:30;;;;;;;1.20;1.10;;;15.10;56.10;;;;;;221955;1267;24206;-46
2023/01/14 02:12:17;;;;;;;1.60;1.30;;;15.10;56.10;;;;;;221641;1257;199181;-52
2023/01/14 02:17:39;;;;;;;1.60;1.50;;;15.10;56.20;;;;;;221936;1267;25488;-46
2023/01/14 02:23:16;;;;;;;1.40;1.20;;;15.10;55.90;;;;;;221816;1252;22631;-51
2023/01/14 02:28:47;;;;;;;1.30;1.20;;;15.10;56.60;;;;;;221898;1263;22613;-49
2023/01/14 02:34:03;;;;;;;1.50;1.40;;;15.10;55.70;;;;;;221892;1271;24182;-50
2023/01/14 02:39:14;;;;;;;1.80;1.30;;;15.10;55.80;;;;;;222169;1271;24436;-49
2023/01/14 02:44:29;;;;;;;1.50;1.40;;;15.10;56.00;;;;;;221864;1263;22528;-50
2023/01/14 02:49:37;;;;;;;1.90;1.40;;;15.10;56.20;;;;;;221828;1267;24248;-49
2023/01/14 02:54:54;;;;;;;1.40;1.20;;;15.10;55.80;;;;;;222137;1270;22531;-47
2023/01/14 03:00:21;;;;;;;2.30;1.70;;;15.10;55.80;;;;;;221905;1271;22550;-47
2023/01/14 03:05:32;;;;;;;1.60;1.30;;;15.00;56.50;;;;;;221673;1270;22531;-48
2023/01/14 03:10:56;;;;;;;2.60;2.20;;;15.00;56.40;;;;;;221793;1271;22721;-49
2023/01/14 03:16:29;;;;;;;2.80;2.10;;;15.00;56.40;;;;;;221967;1271;22615;-49
2023/01/14 03:21:36;;;;;;;1.60;1.50;;;15.00;56.30;;;;;;221746;1271;24244;-47
2023/01/14 03:26:43;;;;;;;1.90;1.80;;;15.00;56.00;;;;;;221963;1257;24051;-46
2023/01/14 03:31:56;;;;;;;1.70;1.60;;;15.00;56.10;;;;;;221714;1247;25445;-47
2023/01/14 03:37:05;;;;;;;2.40;2.20;;;15.00;56.10;;;;;;222046;1270;22994;-48
2023/01/14 03:42:19;;;;;;;2.00;1.50;;;15.00;56.00;;;;;;222397;1267;22892;-47
2023/01/14 03:47:29;;;;;;;1.70;1.60;;;15.00;56.00;;;;;;222363;1270;23712;-49
2023/01/14 03:52:58;;;;;;;1.50;1.40;;;15.20;55.50;;;;;;221835;1270;25152;-50
2023/01/14 03:58:15;;;;;;;1.40;1.30;;;15.10;55.70;;;;;;221773;1267;22647;-52
2023/01/14 04:03:21;;;;;;;1.70;1.60;;;15.10;55.80;;;;;;221813;1271;24346;-58
2023/01/14 04:08:27;;;;;;;2.30;1.70;;;15.00;55.90;;;;;;221782;1271;22556;-47
2023/01/14 04:18:55;;;;;;;1.70;1.60;;;15.10;55.70;;;;;;221837;1267;22636;-49
2023/01/14 04:23:59;;;;;;;1.50;1.40;;;15.10;55.80;;;;;;221947;1262;22528;-49
2023/01/14 04:29:03;;;;;;;1.50;1.20;;;15.00;55.90;;;;;;221683;1270;22528;-49
2023/01/14 04:34:08;;;;;;;1.40;1.30;;;15.00;56.10;;;;;;222023;1271;22536;-47
2023/01/14 04:39:13;;;;;;;1.30;1.20;;;14.90;55.90;;;;;;221863;1270;22764;-50
2023/01/14 04:44:17;;;;;;;1.50;1.40;;;15.00;55.90;;;;;;222094;1270;24091;-47
2023/01/14 04:49:20;;;;;;;1.70;1.50;;;15.00;56.00;;;;;;222225;1271;22563;-48
2023/01/14 04:54:25;;;;;;;1.60;1.40;;;15.00;55.80;;;;;;222052;1267;22524;-49
2023/01/14 04:59:29;;;;;;;1.40;1.30;;;15.00;55.60;;;;;;221836;1271;23875;-49
2023/01/14 05:04:34;;;;;;;1.60;1.50;;;15.10;55.60;;;;;;221872;1271;22647;-49
2023/01/14 05:09:38;;;;;;;1.20;1.10;;;15.00;55.70;;;;;;222568;1263;23021;-48
2023/01/14 05:14:42;;;;;;;1.30;1.20;;;15.00;55.70;;;;;;221787;1267;24366;-50
2023/01/14 05:19:46;;;;;;;1.50;1.40;;;15.00;55.60;;;;;;222328;1271;22668;-50
2023/01/14 05:24:50;;;;;;;1.50;1.40;;;15.10;55.60;;;;;;222085;1270;22696;-50
2023/01/14 05:29:54;;;;;;;1.90;1.60;;;15.00;55.60;;;;;;222106;1271;22653;-47
2023/01/14 05:34:58;;;;;;;1.40;1.30;;;15.00;55.60;;;;;;221828;1271;23936;-50
2023/01/14 05:40:03;;;;;;;1.70;1.60;;;15.00;55.60;;;;;;221804;1260;25451;-48
2023/01/14 05:50:33;;;;;;;1.30;1.20;;;15.00;55.70;;;;;;221824;1270;22770;-50
2023/01/14 05:55:37;;;;;;;1.40;1.30;;;15.00;55.70;;;;;;221969;1271;22692;-48
2023/01/14 06:06:22;;;;;;;1.50;1.40;;;14.90;55.70;;;;;;223549;1267;24304;-50
2023/01/14 06:11:29;;;;;;;1.40;1.20;;;15.00;56.30;;;;;;227941;1265;22538;-49
2023/01/14 06:16:40;;;;;;;1.40;1.30;;;15.20;54.90;;;;;;222468;1271;24374;-49
2023/01/14 06:21:44;;;;;;;2.50;1.30;;;15.20;54.90;;;;;;223265;1271;23106;-49
2023/01/14 06:26:47;;;;;;;1.50;1.40;;;15.10;55.10;;;;;;224455;1271;22700;-48
2023/01/14 06:31:51;;;;;;;1.30;1.20;;;15.10;55.20;;;;;;221789;1250;24229;-46
2023/01/14 06:36:55;;;;;;;1.40;1.30;;;15.10;55.30;;;;;;221798;1262;22534;-50
2023/01/14 06:41:59;;;;;;;1.60;1.50;;;15.00;55.80;;;;;;222115;1271;22525;-48
2023/01/14 06:47:03;;;;;;;1.20;1.10;;;15.00;55.50;;;;;;221821;1271;22520;-52
2023/01/14 06:52:07;;;;;;;1.40;1.30;;;15.00;55.70;;;;;;221895;1263;22549;-48
2023/01/14 06:57:11;;;;;;;1.20;1.10;;;14.90;55.60;;;;;;221698;1271;24077;-50
2023/01/14 07:02:16;;;;;;;1.40;1.30;;;15.00;55.70;;;;;;221716;1268;23882;-48
2023/01/14 07:07:20;;;;;;;1.60;1.50;;;14.90;55.80;;;;;;221930;1264;26366;-49
2023/01/14 07:12:24;;;;;;;1.40;1.30;;;14.90;55.70;;;;;;221910;1271;26524;-49
2023/01/14 07:17:28;;;;;;;1.60;1.50;;;14.90;55.70;;;;;;221963;1271;22605;-49
2023/01/14 07:22:32;;;;;;;1.50;1.40;;;15.00;55.60;;;;;;221922;1267;22531;-49
2023/01/14 07:27:36;;;;;;;1.40;1.30;;;14.90;55.80;;;;;;222355;1267;24282;-48
2023/01/14 07:32:40;;;;;;;1.60;1.30;;;15.00;55.50;;;;;;221956;1269;22646;-49
2023/01/14 07:37:44;;;;;;;1.30;1.30;;;14.90;55.50;;;;;;221828;1268;22531;-48
2023/01/14 07:42:57;;;;;;;1.30;1.20;;;15.00;55.60;;;;;;221886;1271;22525;-47
2023/01/14 07:48:01;;;;;;;1.80;1.60;;;14.90;55.70;;;;;;221925;1260;25451;-49
2023/01/14 07:53:05;;;;;;;1.40;1.30;;;14.90;55.70;;;;;;222086;1267;26325;-51
2023/01/14 07:58:10;;;;;;;1.40;1.20;;;15.00;55.60;;;;;;221966;1271;25300;-48
2023/01/14 08:03:14;;;;;;;1.10;1.00;;;14.80;56.00;;;;;;221848;1271;24209;-49
2023/01/14 08:08:18;;;;;;;1.80;1.20;;;14.80;55.80;;;;;;222028;1263;22521;-50
2023/01/14 08:13:23;;;;;;;2.10;1.30;;;14.80;56.00;;;;;;221778;1262;22659;-50
2023/01/14 08:18:29;;;;;;;1.30;1.10;;;14.80;56.00;;;;;;222286;1270;25351;-47
2023/01/14 08:23:34;;;;;;;1.00;0.90;;;14.80;56.10;;;;;;222038;1269;22528;-49
2023/01/14 08:28:40;;;;;;;1.20;1.10;;;14.80;56.10;;;;;;221975;1271;22539;-49
2023/01/14 08:33:45;;;;;;;1.70;1.20;;;14.80;56.10;;;;;;221818;1270;24219;-47
2023/01/14 08:38:52;;;;;;;1.40;1.30;;;14.80;56.10;;;;;;221978;1271;22524;-52
2023/01/14 08:43:56;;;;;;;1.80;1.70;;;14.80;56.00;;;;;;226687;1271;25630;-46
2023/01/14 08:49:01;;;;;;;1.10;1.00;;;14.90;55.80;;;;;;224288;1270;24840;-50
2023/01/14 08:54:06;;;;;;;1.50;1.40;;;15.00;55.80;;;;;;221996;1271;24340;-48
2023/01/14 08:59:11;;;;;;;1.60;1.00;;;14.90;55.70;;;;;;222030;1249;22535;-47
2023/01/14 09:04:15;;;;;;;1.30;1.20;;;14.80;56.00;;;;;;221765;1271;25418;-50
2023/01/14 09:20:10;;;;;;;2.10;1.20;;;14.80;56.00;;;;;;221723;1271;23913;-50
2023/01/14 09:25:15;;;;;;;1.40;1.20;;;14.80;56.10;;;;;;221843;1271;24282;-48
2023/01/14 09:30:29;;;;;;;1.30;1.10;;;14.80;56.10;;;;;;221894;1271;25697;-50
2023/01/14 09:35:34;;;;;;;1.20;1.10;;;14.90;56.00;;;;;;221935;1271;22537;-49
2023/01/14 09:40:40;;;;;;;1.20;1.10;;;14.90;56.20;;;;;;222022;1269;22660;-46
2023/01/14 09:45:47;;;;;;;1.30;1.20;;;14.80;56.10;;;;;;222043;1269;25328;-49
2023/01/14 09:51:09;;;;;;;1.60;1.40;;;14.90;56.20;;;;;;221883;1271;24170;-51
2023/01/14 09:56:19;;;;;;;;;;;14.90;55.90;;;;;;221881;1271;22643;-48
2023/01/14 10:01:52;;;;;;;1.00;0.90;;;15.20;55.40;;;;;;221842;1271;22539;-49
2023/01/14 10:06:58;;;;;;;0.90;0.80;;;15.20;55.60;;;;;;221944;1269;25342;-48
2023/01/14 10:12:05;;;;;;;0.80;0.80;;;15.20;55.30;;;;;;221848;1263;23939;-47
2023/01/14 10:17:14;;;;;;;1.00;1.00;;;15.20;55.20;;;;;;221960;1269;22651;-49
2023/01/14 10:22:41;;;;;;;1.20;1.10;;;15.20;55.50;;;;;;221973;1269;22546;-48
2023/01/14 10:27:55;;;;;;;1.40;1.10;;;15.10;55.50;;;;;;221741;1271;22542;-49
2023/01/14 10:33:04;;;;;;;1.00;1.00;;;15.10;55.70;;;;;;221873;1271;24321;-49
2023/01/14 10:38:15;;;;;;;0.90;0.90;;;15.10;55.80;;;;;;221954;1271;23241;-49
2023/01/14 10:43:31;;;;;;;1.10;1.00;;;15.20;55.90;;;;;;221860;1269;22526;-49
2023/01/14 10:48:57;;;;;;;1.00;1.00;;;15.30;55.60;;;;;;221781;1271;22534;-49
2023/01/14 10:54:22;;;;;;;1.50;1.20;;;15.30;56.20;;;;;;221879;1268;22538;-50
2023/01/14 10:59:44;;;;;;;2.00;1.10;;;15.30;55.90;;;;;;222006;1271;22619;-49
2023/01/14 11:04:49;;;;;;;1.20;1.10;;;15.40;55.70;;;;;;221977;1261;22528;-47
2023/01/14 11:09:56;;;;;;;1.20;1.10;;;15.50;55.70;;;;;;226421;1263;22534;-49
2023/01/14 11:15:00;;;;;;;1.40;0.90;;;15.50;55.50;;;;;;223964;1266;22553;-49
2023/01/14 11:20:27;;;;;;;1.20;1.20;;;15.60;55.20;;;;;;222850;1247;25457;-49
2023/01/14 11:25:32;;;;;;;1.00;0.90;;;15.80;54.80;;;;;;222065;1271;22604;-48
2023/01/14 11:30:36;;;;;;;2.00;1.10;;;15.70;54.60;;;;;;224345;1269;24346;-49
2023/01/14 11:35:41;;;;;;;1.30;1.20;;;15.70;54.90;;;;;;221786;1250;24356;-46
2023/01/14 11:46:14;;;;;;;1.10;1.10;;;15.80;54.50;;;;;;221869;1270;24762;-51
2023/01/14 11:51:20;;;;;;;1.30;1.20;;;15.70;54.70;;;;;;221981;1263;25370;-48
2023/01/14 11:56:29;;;;;;;1.70;1.20;;;15.70;54.90;;;;;;221689;1271;22527;-51
2023/01/14 12:01:40;;;;;;;1.10;1.00;;;15.60;54.90;;;;;;221916;1266;25430;-48
2023/01/14 12:06:53;;;;;;;1.20;1.10;;;15.60;55.00;;;;;;222073;1269;22538;-50
2023/01/14 12:12:09;;;;;;;1.10;1.00;;;15.60;55.40;;;;;;222281;1271;24305;-49
2023/01/14 12:17:38;;;;;;;1.40;1.00;;;15.50;55.30;;;;;;221892;1269;22537;-50
2023/01/14 12:23:02;;;;;;;1.10;1.00;;;15.60;55.50;;;;;;221906;1269;22538;-50
2023/01/14 12:28:40;;;;;;;2.20;1.20;;;15.70;55.80;;;;;;222025;1271;22799;-51
2023/01/14 12:33:49;;;;;;;1.00;1.00;;;15.70;55.40;;;;;;221890;1270;22754;-49
2023/01/14 12:50:23;;;;;;;2.10;1.30;;;15.90;55.10;;;;;;221726;1271;22574;-47
2023/01/14 12:55:38;;;;;;;1.50;1.30;;;16.00;54.90;;;;;;222026;1270;25403;-51
2023/01/14 13:00:50;;;;;;;1.60;1.40;;;16.00;55.10;;;;;;221871;1271;22870;-49
2023/01/14 13:05:55;;;;;;;1.60;1.00;;;16.20;54.70;;;;;;221814;1270;22620;-49
2023/01/14 13:11:11;;;;;;;1.70;1.40;;;16.20;54.70;;;;;;221898;1268;22542;-49
2023/01/14 13:16:34;;;;;;;1.10;1.10;;;16.10;55.10;;;;;;221733;1271;24084;-48
2023/01/14 13:22:09;;;;;;;1.30;1.20;;;16.20;54.80;;;;;;221893;1271;23082;-47
2023/01/14 13:27:34;;;;;;;1.10;1.00;;;16.20;54.70;;;;;;221753;1269;22560;-48
2023/01/14 13:32:50;;;;;;;0.90;0.90;;;16.20;54.80;;;;;;221948;1271;22621;-49
2023/01/14 13:37:57;;;;;;;1.30;1.20;;;16.20;54.60;;;;;;221692;1271;22532;-48
2023/01/14 13:43:23;;;;;;;1.30;1.20;;;16.10;54.70;;;;;;221827;1271;22540;-51
2023/01/14 13:48:37;;;;;;;1.60;1.30;;;16.10;54.70;;;;;;223388;1269;24056;-50
2023/01/14 13:53:41;;;;;;;1.10;1.00;;;16.10;54.70;;;;;;221731;1270;24177;-49
2023/01/14 13:58:50;;;;;;;1.50;1.40;;;16.10;54.60;;;;;;222173;1271;26300;-50
2023/01/14 14:04:08;;;;;;;1.30;1.10;;;16.20;54.30;;;;;;222822;1266;25329;-52
2023/01/14 14:09:19;;;;;;;1.30;1.20;;;16.30;54.70;;;;;;221855;1271;219717;-47
2023/01/14 14:14:30;;;;;;;1.10;1.00;;;16.30;54.00;;;;;;222092;1263;22652;-46
2023/01/14 14:19:49;;;;;;;1.70;1.10;;;16.30;53.80;;;;;;221783;1267;22534;-46
2023/01/14 14:24:59;;;;;;;1.20;1.10;;;16.30;54.10;;;;;;222035;1271;22646;-50
2023/01/14 14:30:26;;;;;;;1.20;1.10;;;16.20;54.20;;;;;;221880;1271;25597;-50
2023/01/14 14:35:42;;;;;;;1.00;1.00;;;16.10;54.30;;;;;;221933;1270;22525;-51
2023/01/14 14:41:15;;;;;;;2.30;1.20;;;16.00;54.50;;;;;;221718;1271;25123;-46
2023/01/14 14:46:28;;;;;;;1.60;1.40;;;15.90;54.50;;;;;;221963;1271;22643;-47
2023/01/14 14:51:31;;;;;;;;;;;16.00;54.40;;;;;;221936;1271;22518;-50
2023/01/14 14:56:35;;;;;;;1.50;1.40;;;15.90;54.50;;;;;;221998;1271;22531;-50
2023/01/14 15:01:39;;;;;;;1.80;1.60;;;15.90;54.50;;;;;;221798;1271;22656;-51
2023/01/14 15:06:45;;;;;;;2.40;1.60;;;16.00;54.10;;;;;;221752;1271;22573;-50
2023/01/14 15:11:50;;;;;;;1.70;1.40;;;16.00;54.20;;;;;;221787;1270;23268;-48
2023/01/14 15:16:54;;;;;;;1.50;1.20;;;16.00;54.10;;;;;;221827;1271;22527;-48
2023/01/14 15:22:03;;;;;;;1.50;1.40;;;16.00;54.20;;;;;;221851;1271;24314;-51
2023/01/14 15:27:13;;;;;;;1.20;1.00;;;15.90;54.20;;;;;;222033;1271;23779;-48
2023/01/14 15:32:32;;;;;;;2.00;1.30;;;16.00;54.00;;;;;;222041;1271;22542;-48
2023/01/14 15:37:38;;;;;;;1.60;1.50;;;15.80;54.30;;;;;;222001;1271;22539;-47
2023/01/14 15:42:44;;;;;;;1.60;1.30;;;15.80;54.30;;;;;;221813;1271;22763;-47
2023/01/14 15:47:55;;;;;;;1.90;1.50;;;15.80;54.90;;;;;;221786;1271;25485;-49
2023/01/14 15:53:14;;;;;;;1.80;1.70;;;15.80;54.30;;;;;;221807;1271;24036;-46
2023/01/14 15:58:32;;;;;;;1.50;1.40;;;15.80;54.30;;;;;;221644;1267;22515;-52
2023/01/14 16:03:43;;;;;;;1.50;1.40;;;15.80;54.50;;;;;;221856;1271;24209;-50
2023/01/14 16:08:47;;;;;;;1.70;1.20;;;15.80;54.30;;;;;;221861;1271;22542;-52
2023/01/14 16:13:51;;;;;;;1.80;1.40;;;15.80;54.40;;;;;;221810;1270;22542;-46
2023/01/14 16:18:56;;;;;;;2.30;1.50;;;15.70;54.50;;;;;;221768;1271;22531;-49
2023/01/14 16:24:02;;;;;;;2.00;1.50;;;15.60;54.70;;;;;;221927;1270;22613;-49
2023/01/14 16:29:10;;;;;;;3.10;1.50;;;15.70;54.50;;;;;;221998;1271;22548;-51
2023/01/14 16:34:14;;;;;;;3.00;2.10;;;15.70;54.60;;;;;;221988;1269;25859;-46
2023/01/14 16:39:18;;;;;;;1.60;1.50;;;15.70;54.10;;;;;;222429;1271;22796;-49
2023/01/14 16:44:23;;;;;;;2.20;1.40;;;15.70;54.10;;;;;;221710;1250;24212;-49
2023/01/14 16:49:27;;;;;;;2.50;2.00;;;15.70;54.00;;;;;;221697;1271;24379;-49
2023/01/14 16:54:31;;;;;;;2.30;1.70;;;15.80;54.00;;;;;;221788;1264;22547;-47
2023/01/14 16:59:35;;;;;;;1.70;1.60;;;15.80;54.00;;;;;;221799;1271;22534;-49
2023/01/14 17:04:39;;;;;;;2.00;1.50;;;15.80;53.90;;;;;;221766;1270;22525;-47
2023/01/14 17:09:43;;;;;;;2.00;1.70;;;15.70;54.10;;;;;;221937;1261;23893;-48
2023/01/14 17:14:47;;;;;;;2.20;2.00;;;15.70;54.00;;;;;;221758;1271;22552;-47
2023/01/14 17:19:51;;;;;;;2.30;1.90;;;15.70;54.10;;;;;;221920;1271;24112;-48
2023/01/14 17:24:55;;;;;;;1.70;1.60;;;15.70;54.10;;;;;;222017;1267;22750;-53
2023/01/14 17:30:00;;;;;;;7.00;2.00;;;15.80;53.50;;;;;;222272;1270;24768;-50
2023/01/14 17:35:05;;;;;;;6.90;3.00;;;15.60;54.40;;;;;;222153;1270;22541;-53
2023/01/14 17:40:19;;;;;;;7.90;3.10;;;15.50;54.80;;;;;;222265;1264;26694;-54
2023/01/14 17:45:24;;;;;;;5.90;2.70;;;15.60;55.10;;;;;;222282;1270;22537;-52
2023/01/14 17:50:28;;;;;;;5.30;2.50;;;15.70;54.90;;;;;;221986;1263;22787;-53
2023/01/14 17:55:33;;;;;;;6.70;2.30;;;16.00;55.00;;;;;;221657;1248;24362;-49
2023/01/14 18:00:38;;;;;;;9.20;2.80;;;16.60;54.50;;;;;;221403;1254;23598;-46
2023/01/14 18:05:42;;;;;;;4.00;2.50;;;17.00;53.40;;;;;;221656;1267;22538;-49
2023/01/14 18:10:48;;;;;;;4.80;2.60;;;17.40;52.80;;;;;;221799;1266;24236;-44
2023/01/14 18:16:00;;;;;;;8.00;2.70;;;17.60;52.60;;;;;;221810;1270;22541;-47
2023/01/14 18:21:08;;;;;;;6.30;2.60;;;17.70;53.00;;;;;;222126;1270;22622;-44
2023/01/14 18:26:15;;;;;;;10.20;2.90;;;17.80;53.00;;;;;;221814;1270;22532;-50
2023/01/14 18:31:19;;;;;;;10.90;3.10;;;17.70;56.30;;;;;;221809;1267;23040;-50
2023/01/14 18:36:24;;;;;;;9.90;2.70;;;17.90;57.20;;;;;;221967;1263;22775;-48
2023/01/14 18:41:36;;;;;;;3.30;2.30;;;18.20;55.30;;;;;;221656;1257;25294;-49
2023/01/14 18:46:41;;;;;;;9.10;3.00;;;18.40;56.70;;;;;;222166;1270;25481;-45
2023/01/14 18:51:46;;;;;;;7.80;3.00;;;18.40;57.10;;;;;;222192;1250;24241;-44
2023/01/14 18:56:51;;;;;;;15.60;2.90;;;18.40;56.20;;;;;;221807;1269;22614;-43
2023/01/14 19:01:57;;;;;;;5.70;2.70;;;18.50;58.90;;;;;;222237;1258;22597;-47
2023/01/14 19:07:02;;;;;;;8.40;3.10;;;18.40;57.30;;;;;;221862;1264;23262;-47
2023/01/14 19:12:11;;;;;;;12.60;2.80;;;18.20;58.20;;;;;;222013;1264;22547;-54
2023/01/14 19:17:24;;;;;;;7.10;2.70;;;18.20;58.70;;;;;;222098;1264;24369;-54
2023/01/14 19:22:34;;;;;;;10.70;3.10;;;18.00;59.40;;;;;;222045;1260;24257;-50
2023/01/14 19:27:46;;;;;;;9.00;3.70;;;18.00;59.20;;;;;;221947;1267;22626;-47
2023/01/14 19:32:53;;;;;;;10.20;3.80;;;18.00;59.50;;;;;;221934;1267;22529;-49
2023/01/14 19:38:01;;;;;;;14.80;4.00;;;18.00;63.20;;;;;;222234;1263;22534;-49
2023/01/14 19:43:07;;;;;;;8.80;3.10;;;18.60;62.10;;;;;;222072;1263;22556;-49
2023/01/14 19:48:13;;;;;;;10.20;3.60;;;18.90;62.00;;;;;;221885;1270;27499;-54
2023/01/14 19:53:17;;;;;;;12.00;3.60;;;19.00;61.30;;;;;;222136;1264;25304;-50
2023/01/14 19:58:23;;;;;;;11.50;3.30;;;19.20;61.40;;;;;;222152;1263;24295;-48
2023/01/14 20:03:27;;;;;;;10.20;3.80;;;19.30;60.40;;;;;;222002;1259;24070;-54
2023/01/14 20:08:39;;;;;;;8.40;2.80;;;19.40;60.10;;;;;;221864;1256;26567;-57
2023/01/14 20:13:58;;;;;;;4.30;2.80;;;19.50;59.80;;;;;;221900;1254;22552;-56
2023/01/14 20:19:04;;;;;;;7.10;2.70;;;19.60;59.50;;;;;;221956;1271;25322;-57
2023/01/14 20:24:16;;;;;;;7.40;3.00;;;19.70;59.80;;;;;;222072;1270;24702;-53
2023/01/14 20:29:21;;;;;;;8.60;2.60;;;19.80;59.00;;;;;;221818;1248;24250;-51
2023/01/14 20:34:27;;;;;;;5.70;2.80;;;19.90;58.70;;;;;;221842;1262;22543;-53
2023/01/14 20:39:32;;;;;;;5.50;2.50;;;20.00;58.20;;;;;;222059;1256;24272;-54
2023/01/14 20:50:02;;;;;;;19.20;2.70;;;20.10;57.70;;;;;;221983;1266;22760;-55
2023/01/14 20:55:09;;;;;;;6.60;2.30;;;20.20;57.50;;;;;;221961;1263;22706;-59
2023/01/14 21:00:18;;;;;;;4.80;2.60;;;20.30;57.30;;;;;;221869;1263;22649;-54
2023/01/14 21:05:24;;;;;;;4.20;2.50;;;20.50;57.30;;;;;;221931;1270;22628;-53
2023/01/14 21:10:29;;;;;;;4.20;2.60;;;20.50;56.70;;;;;;222063;1256;24219;-52
2023/01/14 21:26:26;;;;;;;7.30;2.20;;;20.60;57.10;;;;;;221964;1248;24054;-55
2023/01/14 21:31:31;;;;;;;6.20;2.00;;;20.70;57.20;;;;;;221868;1253;22663;-49
2023/01/14 21:36:35;;;;;;;3.30;1.90;;;20.80;56.80;;;;;;222044;1266;22643;-47
2023/01/14 21:47:06;;;;;;;7.00;2.30;;;20.70;56.40;;;;;;222006;1261;22617;-48
2023/01/14 21:52:12;;;;;;;6.70;2.50;;;21.00;58.10;;;;;;222492;1263;24218;-50
2023/01/14 21:57:18;;;;;;;6.80;2.60;;;21.20;57.60;;;;;;221825;1256;22562;-51
2023/01/14 22:02:23;;;;;;;7.60;2.80;;;21.30;57.60;;;;;;221686;1263;22553;-53
2023/01/14 22:07:28;;;;;;;5.60;2.50;;;21.30;57.80;;;;;;221924;1259;24346;-52
2023/01/14 22:12:33;;;;;;;5.70;2.70;;;21.30;57.40;;;;;;222020;1266;22530;-52
2023/01/14 22:17:38;;;;;;;4.10;2.30;;;21.40;57.80;;;;;;221904;1256;22708;-51
2023/01/14 22:22:42;;;;;;;9.80;2.80;;;21.40;57.80;;;;;;222086;1270;25483;-52
2023/01/14 22:27:47;;;;;;;9.20;2.30;;;21.50;57.20;;;;;;222037;1263;24216;-51
2023/01/14 22:32:52;;;;;;;4.90;2.20;;;21.50;57.10;;;;;;221965;1262;22661;-52
2023/01/14 22:37:57;;;;;;;5.80;2.40;;;21.60;57.20;;;;;;221857;1259;24251;-51
2023/01/14 22:43:01;;;;;;;5.90;2.10;;;21.60;57.20;;;;;;221952;1263;22762;-52
2023/01/14 22:48:06;;;;;;;3.80;2.00;;;21.70;56.80;;;;;;221880;1257;25434;-52
2023/01/14 22:53:10;;;;;;;3.10;2.00;;;21.70;57.00;;;;;;221974;1270;22992;-53
2023/01/14 22:58:17;;;;;;;7.80;2.10;;;21.70;56.70;;;;;;222130;1256;22746;-51
2023/01/14 23:03:22;;;;;;;2.20;1.60;;;21.80;56.90;;;;;;221906;1256;25433;-51
2023/01/14 23:08:26;;;;;;;3.50;1.90;;;21.80;56.40;;;;;;221735;1247;24362;-52
2023/01/14 23:13:31;;;;;;;8.30;1.90;;;21.90;56.30;;;;;;221902;1256;24237;-58
2023/01/14 23:18:35;;;;;;;4.30;2.00;;;21.90;56.50;;;;;;221734;1262;25512;-50
2023/01/14 23:23:51;;;;;;;2.20;1.50;;;22.00;55.90;;;;;;221873;1250;24263;-51
2023/01/14 23:28:55;;;;;;;13.50;1.90;;;22.00;55.90;;;;;;222010;1262;22663;-49
2023/01/14 23:34:00;;;;;;;5.60;2.00;;;22.00;55.80;;;;;;221726;1256;24308;-50
2023/01/14 23:39:04;;;;;;;2.10;1.70;;;22.10;55.60;;;;;;221925;1267;25432;-50
2023/01/14 23:44:13;;;;;;;3.40;1.80;;;22.10;55.50;;;;;;221858;1267;22554;-48
2023/01/14 23:49:17;;;;;;;3.70;1.70;;;22.10;55.60;;;;;;221684;1248;23427;-49
2023/01/14 23:54:21;;;;;;;3.90;1.70;;;22.20;55.30;;;;;;221742;1270;25620;-49
2023/01/14 23:59:25;;;;;;;2.70;1.60;;;22.20;55.00;;;;;;221846;1263;22526;-47
